Time;durP1;ratioP1;P1;durP2;ratioP2;P2;SDS_P1;SDS_P2;PMS_P1;PMS_P2;Temp;Humidity;BMP_temperature;BMP_pressure;BME280_temperature;BME280_humidity;BME280_pressure;Samples;Min_cycle;Max_cycle;Signal;HPM_P1;HPM_P2
2023/07/20 00:00:57;;;;;;;0.50;0.30;;;17.50;99.90;;;;;;5066272;28;21056;-84
2023/07/20 00:03:24;;;;;;;0.50;0.40;;;17.50;99.90;;;;;;5066447;28;20436;-83
2023/07/20 00:05:51;;;;;;;0.50;0.40;;;17.60;99.90;;;;;;5066208;28;20844;-83
2023/07/20 00:08:19;;;;;;;0.50;0.40;;;17.60;99.90;;;;;;5066979;28;20438;-83
2023/07/20 00:10:47;;;;;;;0.50;0.30;;;17.60;99.90;;;;;;5066752;28;20428;-84
2023/07/20 00:13:15;;;;;;;0.50;0.30;;;17.70;99.90;;;;;;5066299;28;20518;-84
2023/07/20 00:15:42;;;;;;;0.50;0.30;;;17.70;99.90;;;;;;5066879;28;20467;-84
2023/07/20 00:18:09;;;;;;;0.50;0.40;;;17.60;99.90;;;;;;5066028;28;20438;-84
2023/07/20 00:20:36;;;;;;;0.50;0.40;;;17.60;99.90;;;;;;5067123;28;20971;-82
2023/07/20 00:23:03;;;;;;;0.50;0.30;;;17.50;99.90;;;;;;5067070;28;20454;-83
2023/07/20 00:25:29;;;;;;;0.50;0.40;;;17.50;99.90;;;;;;5066299;28;20467;-83
2023/07/20 00:27:58;;;;;;;0.50;0.40;;;17.50;99.90;;;;;;5067171;28;20454;-84
2023/07/20 00:30:24;;;;;;;0.50;0.40;;;17.40;99.90;;;;;;5066576;28;20508;-83
2023/07/20 00:32:51;;;;;;;0.50;0.40;;;17.40;99.90;;;;;;5066861;28;20444;-84
2023/07/20 00:35:18;;;;;;;0.50;0.40;;;17.30;99.90;;;;;;5066239;28;20460;-83
2023/07/20 00:37:45;;;;;;;0.93;0.93;;;17.30;99.90;;;;;;5066930;28;20436;-84
2023/07/20 00:40:12;;;;;;;0.87;0.70;;;17.30;99.90;;;;;;5066015;28;20440;-83
2023/07/20 00:42:39;;;;;;;0.50;0.40;;;17.30;99.90;;;;;;5065137;28;20476;-81
2023/07/20 00:45:08;;;;;;;0.50;0.40;;;17.30;99.90;;;;;;5065799;28;21031;-83
2023/07/20 00:47:34;;;;;;;0.50;0.30;;;17.30;99.90;;;;;;5065624;28;20436;-84
2023/07/20 00:50:02;;;;;;;2.30;1.13;;;17.20;99.90;;;;;;5066180;28;20429;-84
2023/07/20 00:52:30;;;;;;;0.50;0.40;;;17.30;99.90;;;;;;5057413;28;20440;-85
2023/07/20 00:54:57;;;;;;;0.50;0.40;;;17.30;99.90;;;;;;5065950;28;20459;-83
2023/07/20 00:57:26;;;;;;;0.50;0.40;;;17.30;99.90;;;;;;5065696;28;20444;-84
2023/07/20 00:59:53;;;;;;;0.50;0.40;;;17.30;99.90;;;;;;5067158;28;20466;-84
2023/07/20 01:02:21;;;;;;;0.50;0.40;;;17.30;99.90;;;;;;5064977;28;20467;-85
2023/07/20 01:04:48;;;;;;;0.50;0.30;;;17.40;99.90;;;;;;5066117;28;20452;-84
2023/07/20 01:07:24;;;;;;;0.50;0.30;;;17.40;99.90;;;;;;5066806;28;20439;-84
2023/07/20 01:10:00;;;;;;;0.50;0.40;;;17.40;99.90;;;;;;5066677;28;20443;-85
2023/07/20 01:12:33;;;;;;;0.60;0.60;;;17.30;99.90;;;;;;5068225;28;20435;-83
2023/07/20 01:15:01;;;;;;;0.50;0.40;;;17.30;99.90;;;;;;5067941;28;20463;-84
2023/07/20 01:17:29;;;;;;;0.50;0.40;;;17.20;99.90;;;;;;5069169;28;20433;-84
2023/07/20 01:19:56;;;;;;;0.50;0.40;;;17.20;99.90;;;;;;5068598;28;20431;-84
2023/07/20 01:22:44;;;;;;;1.23;1.23;;;17.20;99.90;;;;;;5066085;28;20567;-84
2023/07/20 01:25:25;;;;;;;0.50;0.30;;;17.20;99.90;;;;;;5066823;28;20464;-81
2023/07/20 01:28:31;;;;;;;0.50;0.37;;;17.20;99.90;;;;;;5065520;28;20439;-83
2023/07/20 01:31:10;;;;;;;0.50;0.40;;;17.10;99.90;;;;;;5032516;28;20491;-84
2023/07/20 01:33:37;;;;;;;0.73;0.57;;;17.10;99.90;;;;;;5065814;28;20508;-83
2023/07/20 01:36:05;;;;;;;0.50;0.40;;;17.10;99.90;;;;;;5066070;28;20444;-83
2023/07/20 01:38:32;;;;;;;0.50;0.40;;;17.10;99.90;;;;;;5066700;28;20444;-81
2023/07/20 01:40:59;;;;;;;0.50;0.40;;;17.10;99.90;;;;;;5067618;28;20454;-83
2023/07/20 01:43:26;;;;;;;0.50;0.40;;;17.10;99.90;;;;;;5067411;28;20507;-83
2023/07/20 01:45:53;;;;;;;0.50;0.30;;;17.00;99.90;;;;;;5069537;28;20441;-82
2023/07/20 01:48:21;;;;;;;0.60;0.53;;;17.00;99.90;;;;;;5067127;28;20439;-84
2023/07/20 01:50:48;;;;;;;0.50;0.40;;;17.10;99.90;;;;;;5068119;28;20474;-84
2023/07/20 01:53:15;;;;;;;0.50;0.40;;;17.10;99.90;;;;;;5063829;28;20442;-82
2023/07/20 01:55:41;;;;;;;0.50;0.30;;;17.10;99.90;;;;;;5068004;28;20521;-83
2023/07/20 01:58:08;;;;;;;0.53;0.53;;;17.00;99.90;;;;;;5070240;28;20442;-83
2023/07/20 02:00:37;;;;;;;0.50;0.37;;;16.80;99.90;;;;;;5070030;28;20436;-79
2023/07/20 02:03:04;;;;;;;0.70;0.70;;;16.60;99.90;;;;;;5069774;28;20479;-83
2023/07/20 02:05:32;;;;;;;0.50;0.50;;;16.50;99.90;;;;;;5069867;28;20468;-82
2023/07/20 02:07:59;;;;;;;0.50;0.30;;;16.30;99.90;;;;;;5070150;28;20445;-84
2023/07/20 02:10:25;;;;;;;0.50;0.40;;;16.30;99.90;;;;;;5070041;28;20440;-83
2023/07/20 02:12:52;;;;;;;0.50;0.40;;;16.30;99.90;;;;;;5069885;28;20444;-82
2023/07/20 02:15:19;;;;;;;0.50;0.40;;;16.20;99.90;;;;;;5069232;28;20483;-82
2023/07/20 02:17:46;;;;;;;0.50;0.30;;;16.20;99.90;;;;;;5069388;28;20795;-82
2023/07/20 02:20:13;;;;;;;0.50;0.30;;;16.20;99.90;;;;;;5068652;28;20448;-80
2023/07/20 02:22:41;;;;;;;0.50;0.40;;;16.10;99.90;;;;;;5068599;28;20475;-79
2023/07/20 02:25:09;;;;;;;0.50;0.40;;;16.10;99.90;;;;;;5069259;28;20472;-82
2023/07/20 02:27:36;;;;;;;0.50;0.40;;;16.10;99.90;;;;;;5069233;28;20432;-80
2023/07/20 02:30:04;;;;;;;0.50;0.40;;;16.10;99.90;;;;;;5069109;28;20453;-80
2023/07/20 02:32:31;;;;;;;0.50;0.40;;;16.20;99.90;;;;;;5068585;28;20440;-82
2023/07/20 02:34:58;;;;;;;1.23;0.80;;;16.10;99.90;;;;;;5070005;28;20451;-82
2023/07/20 02:37:25;;;;;;;0.50;0.40;;;16.00;99.90;;;;;;5070588;28;20459;-82
2023/07/20 02:39:53;;;;;;;0.50;0.40;;;15.90;99.90;;;;;;5069553;28;20440;-81
2023/07/20 02:42:22;;;;;;;0.50;0.40;;;15.90;99.90;;;;;;5069249;28;20478;-82
2023/07/20 02:44:49;;;;;;;0.50;0.40;;;15.80;99.90;;;;;;5069558;28;20454;-81
2023/07/20 02:47:16;;;;;;;0.50;0.40;;;15.80;99.90;;;;;;5069553;28;20513;-81
2023/07/20 02:49:43;;;;;;;0.50;0.40;;;15.80;99.90;;;;;;5069579;28;20446;-82
2023/07/20 02:52:10;;;;;;;0.50;0.40;;;15.80;99.90;;;;;;5068604;28;20412;-81
2023/07/20 02:54:37;;;;;;;0.50;0.40;;;15.70;99.90;;;;;;5069060;28;20483;-82
2023/07/20 02:57:06;;;;;;;0.50;0.40;;;15.70;99.90;;;;;;5069424;28;20466;-82
2023/07/20 02:59:32;;;;;;;0.50;0.40;;;15.70;99.90;;;;;;5068936;28;20499;-81
2023/07/20 03:01:59;;;;;;;0.50;0.40;;;15.70;99.90;;;;;;5068371;28;20530;-82
2023/07/20 03:04:27;;;;;;;0.50;0.50;;;15.70;99.90;;;;;;5069484;28;20456;-81
2023/07/20 03:06:54;;;;;;;0.50;0.40;;;15.60;99.90;;;;;;5070116;28;20455;-81
2023/07/20 03:09:21;;;;;;;0.50;0.40;;;15.60;99.90;;;;;;5069235;28;20499;-81
2023/07/20 03:11:48;;;;;;;0.50;0.40;;;15.60;99.90;;;;;;5069230;28;20450;-80
2023/07/20 03:14:17;;;;;;;0.50;0.40;;;15.60;99.90;;;;;;5069240;28;20536;-80
2023/07/20 03:16:43;;;;;;;0.50;0.40;;;15.50;99.90;;;;;;5068904;28;20500;-81
2023/07/20 03:19:10;;;;;;;1.43;1.43;;;15.40;99.90;;;;;;5069400;28;20442;-82
2023/07/20 03:21:40;;;;;;;1.10;1.00;;;15.40;99.90;;;;;;5067994;28;20493;-82
2023/07/20 03:24:08;;;;;;;0.50;0.40;;;15.40;99.90;;;;;;5067868;28;20460;-81
2023/07/20 03:26:34;;;;;;;0.50;0.40;;;15.50;99.90;;;;;;5067931;28;20435;-82
2023/07/20 03:29:01;;;;;;;0.70;0.70;;;15.50;99.90;;;;;;5069024;28;20447;-81
2023/07/20 03:31:29;;;;;;;0.50;0.40;;;15.50;99.90;;;;;;5068966;28;20439;-82
2023/07/20 03:33:56;;;;;;;0.50;0.40;;;15.50;99.90;;;;;;5067936;28;20483;-82
2023/07/20 03:36:23;;;;;;;0.50;0.40;;;15.60;99.90;;;;;;5067900;28;20450;-83
2023/07/20 03:38:50;;;;;;;0.50;0.40;;;15.60;99.90;;;;;;5068326;28;20519;-82
2023/07/20 03:41:19;;;;;;;0.50;0.40;;;15.60;99.90;;;;;;5068318;28;20515;-82
2023/07/20 03:43:46;;;;;;;0.50;0.40;;;15.70;99.90;;;;;;5067643;28;20861;-83
2023/07/20 03:46:13;;;;;;;0.50;0.43;;;15.70;99.90;;;;;;5068502;28;21006;-82
2023/07/20 03:48:41;;;;;;;0.50;0.40;;;15.70;99.90;;;;;;5068220;28;20444;-82
2023/07/20 03:51:08;;;;;;;0.50;0.40;;;15.80;99.90;;;;;;5068038;28;20471;-82
2023/07/20 03:53:35;;;;;;;0.50;0.40;;;15.80;99.90;;;;;;5066598;28;20439;-82
2023/07/20 03:56:01;;;;;;;0.97;0.97;;;15.80;99.90;;;;;;5067966;28;20446;-82
2023/07/20 03:58:29;;;;;;;0.50;0.40;;;15.90;99.90;;;;;;5068681;28;20427;-83
2023/07/20 04:00:58;;;;;;;0.50;0.37;;;15.90;99.90;;;;;;5068203;28;20519;-82
2023/07/20 04:03:26;;;;;;;0.50;0.40;;;15.90;99.90;;;;;;5067574;28;20479;-82
2023/07/20 04:05:56;;;;;;;0.53;0.50;;;15.90;99.90;;;;;;5067746;28;20424;-82
2023/07/20 04:08:24;;;;;;;0.50;0.30;;;15.90;99.90;;;;;;5068393;28;20431;-82
2023/07/20 04:10:51;;;;;;;0.50;0.40;;;15.90;99.90;;;;;;5067655;28;20431;-82
2023/07/20 04:13:18;;;;;;;0.50;0.40;;;15.90;99.90;;;;;;5067321;28;20521;-79
2023/07/20 04:15:45;;;;;;;0.50;0.37;;;16.00;99.90;;;;;;5067819;28;20450;-82
2023/07/20 04:18:11;;;;;;;0.50;0.40;;;15.90;99.90;;;;;;5067624;28;20797;-82
2023/07/20 04:20:38;;;;;;;0.50;0.40;;;15.90;99.90;;;;;;5068099;28;20503;-80
2023/07/20 04:23:06;;;;;;;0.50;0.40;;;15.90;99.90;;;;;;5067976;28;20569;-83
2023/07/20 04:25:38;;;;;;;0.50;0.40;;;15.90;99.90;;;;;;5068364;28;20459;-83
2023/07/20 04:28:08;;;;;;;0.50;0.30;;;15.90;99.90;;;;;;5068190;28;20447;-82
2023/07/20 04:30:36;;;;;;;0.50;0.30;;;15.90;99.90;;;;;;5068075;28;20440;-82
2023/07/20 04:33:03;;;;;;;0.50;0.40;;;15.80;99.90;;;;;;5067700;28;20439;-82
2023/07/20 04:35:50;;;;;;;0.50;0.40;;;15.80;99.90;;;;;;5068226;28;20457;-78
2023/07/20 04:38:19;;;;;;;0.50;0.30;;;15.90;99.90;;;;;;5068085;28;20444;-83
2023/07/20 04:40:46;;;;;;;0.50;0.40;;;15.90;99.90;;;;;;5067975;28;20490;-82
2023/07/20 04:43:13;;;;;;;0.50;0.37;;;15.90;99.90;;;;;;5065547;28;20475;-80
2023/07/20 04:45:40;;;;;;;0.50;0.30;;;16.00;99.90;;;;;;5067147;28;20459;-83
2023/07/20 04:48:12;;;;;;;0.50;0.40;;;15.90;99.90;;;;;;5070612;28;20491;-82
2023/07/20 04:50:39;;;;;;;0.50;0.50;;;16.00;99.90;;;;;;5069960;28;20438;-80
2023/07/20 04:53:06;;;;;;;0.90;0.90;;;16.00;99.90;;;;;;5070107;28;20486;-82
2023/07/20 04:55:34;;;;;;;0.50;0.40;;;16.00;99.90;;;;;;5069546;28;20490;-80
2023/07/20 04:58:01;;;;;;;0.50;0.40;;;16.00;99.90;;;;;;5070145;28;20436;-83
2023/07/20 05:00:28;;;;;;;0.70;0.70;;;16.00;99.90;;;;;;5071167;28;20470;-83
2023/07/20 05:02:55;;;;;;;0.50;0.40;;;16.00;99.90;;;;;;5069096;28;20558;-82
2023/07/20 05:05:21;;;;;;;0.50;0.40;;;16.00;99.90;;;;;;5068333;28;20465;-82
2023/07/20 05:07:48;;;;;;;0.50;0.40;;;16.10;99.90;;;;;;5069586;28;20954;-83
2023/07/20 05:10:15;;;;;;;0.50;0.40;;;16.10;99.90;;;;;;5068677;28;20435;-82
2023/07/20 05:12:43;;;;;;;0.50;0.40;;;16.10;99.90;;;;;;5068009;28;20439;-80
2023/07/20 05:15:10;;;;;;;0.50;0.40;;;16.20;99.90;;;;;;5068422;28;20478;-82
2023/07/20 05:17:37;;;;;;;0.50;0.40;;;16.30;99.90;;;;;;5068802;28;20499;-80
2023/07/20 05:20:05;;;;;;;0.50;0.40;;;16.30;99.90;;;;;;5068696;28;20435;-80
2023/07/20 05:22:32;;;;;;;1.23;1.13;;;16.20;99.90;;;;;;5069069;28;20482;-80
2023/07/20 05:24:59;;;;;;;0.50;0.40;;;16.10;99.90;;;;;;5065394;28;20561;-80
2023/07/20 05:27:25;;;;;;;0.50;0.40;;;16.10;99.90;;;;;;5065098;28;20967;-81
2023/07/20 05:29:53;;;;;;;0.50;0.40;;;16.00;99.90;;;;;;5065816;28;20427;-80
2023/07/20 05:32:20;;;;;;;0.50;0.30;;;16.00;99.90;;;;;;5063700;28;21091;-81
2023/07/20 05:34:47;;;;;;;0.50;0.40;;;16.00;99.90;;;;;;5064293;28;20460;-82
2023/07/20 05:37:14;;;;;;;0.50;0.40;;;16.00;99.90;;;;;;5065296;28;20499;-81
2023/07/20 05:39:40;;;;;;;0.50;0.40;;;16.00;99.90;;;;;;5065083;28;20447;-82
2023/07/20 05:42:07;;;;;;;0.50;0.40;;;16.00;99.90;;;;;;5066770;28;20439;-82
2023/07/20 05:44:34;;;;;;;0.50;0.40;;;16.00;99.90;;;;;;5064477;28;20456;-80
2023/07/20 05:47:03;;;;;;;0.50;0.40;;;16.10;99.90;;;;;;5065841;28;20507;-79
2023/07/20 05:49:30;;;;;;;0.50;0.30;;;16.20;99.90;;;;;;5068108;28;20435;-80
2023/07/20 05:51:57;;;;;;;0.50;0.37;;;16.20;99.90;;;;;;5057556;28;20448;-80
2023/07/20 05:54:25;;;;;;;0.50;0.30;;;16.30;99.90;;;;;;5064750;28;20451;-82
2023/07/20 05:56:52;;;;;;;0.50;0.40;;;16.40;99.90;;;;;;5064645;28;20515;-82
2023/07/20 05:59:19;;;;;;;0.50;0.30;;;16.50;99.90;;;;;;5064276;28;20470;-82
2023/07/20 06:01:48;;;;;;;0.50;0.40;;;16.50;99.90;;;;;;5067841;28;20515;-82
2023/07/20 06:04:17;;;;;;;0.50;0.40;;;16.60;99.90;;;;;;5066673;28;20522;-82
2023/07/20 06:06:43;;;;;;;0.50;0.40;;;16.70;99.90;;;;;;5065223;28;20436;-80
2023/07/20 06:09:11;;;;;;;0.50;0.40;;;16.70;99.90;;;;;;5066733;28;20443;-82
2023/07/20 06:11:38;;;;;;;0.50;0.40;;;17.00;99.90;;;;;;5067865;28;20924;-83
2023/07/20 06:14:05;;;;;;;0.50;0.40;;;17.20;99.90;;;;;;5067741;28;20474;-82
2023/07/20 06:16:32;;;;;;;0.50;0.40;;;17.40;99.90;;;;;;5069798;28;20439;-78
2023/07/20 06:19:00;;;;;;;0.50;0.30;;;17.50;99.90;;;;;;5071371;28;20428;-83
2023/07/20 06:21:28;;;;;;;0.50;0.30;;;17.80;99.90;;;;;;5070498;28;20438;-83
2023/07/20 06:23:55;;;;;;;0.50;0.40;;;18.20;99.90;;;;;;5068872;28;20494;-82
2023/07/20 06:26:22;;;;;;;0.50;0.30;;;18.70;99.90;;;;;;5070434;28;20432;-84
2023/07/20 06:28:48;;;;;;;0.50;0.30;;;18.90;99.90;;;;;;5068959;28;20443;-82
2023/07/20 06:31:15;;;;;;;0.50;0.30;;;18.80;99.90;;;;;;5069354;28;20443;-83
2023/07/20 06:33:42;;;;;;;0.50;0.33;;;18.70;99.90;;;;;;5068006;28;20444;-83
2023/07/20 06:36:09;;;;;;;0.50;0.30;;;18.50;99.90;;;;;;5068806;28;20444;-82
2023/07/20 06:38:37;;;;;;;0.50;0.40;;;18.50;99.90;;;;;;5064412;28;20452;-78
2023/07/20 06:41:04;;;;;;;0.50;0.50;;;18.60;99.90;;;;;;5065957;28;20434;-83
2023/07/20 06:43:30;;;;;;;0.50;0.40;;;18.90;99.90;;;;;;5066298;28;20550;-82
2023/07/20 06:45:57;;;;;;;0.50;0.30;;;19.20;99.90;;;;;;5065977;28;20432;-82
2023/07/20 06:48:24;;;;;;;0.50;0.30;;;19.50;99.90;;;;;;5066609;28;20471;-83
2023/07/20 06:50:51;;;;;;;0.50;0.30;;;20.30;99.90;;;;;;5065184;28;20439;-83
2023/07/20 06:53:18;;;;;;;0.50;0.30;;;20.50;99.90;;;;;;5064444;28;20451;-80
2023/07/20 06:55:46;;;;;;;0.50;0.40;;;21.00;99.90;;;;;;5065790;28;20459;-83
2023/07/20 06:58:13;;;;;;;0.50;0.40;;;21.60;99.90;;;;;;5062345;28;20436;-80
2023/07/20 07:00:40;;;;;;;0.50;0.40;;;21.90;99.90;;;;;;5060847;28;20482;-80
2023/07/20 07:03:07;;;;;;;0.50;0.40;;;22.60;99.90;;;;;;5060938;28;20480;-82
2023/07/20 07:05:38;;;;;;;0.50;0.40;;;23.00;99.90;;;;;;5061974;28;20464;-79
2023/07/20 07:08:05;;;;;;;0.50;0.40;;;23.60;99.90;;;;;;5062631;28;20439;-79
2023/07/20 07:10:32;;;;;;;0.50;0.40;;;24.00;99.90;;;;;;5063550;28;20816;-81
2023/07/20 07:13:01;;;;;;;0.50;0.40;;;23.60;99.90;;;;;;5060092;28;20424;-81
2023/07/20 07:15:28;;;;;;;0.50;0.40;;;23.20;99.90;;;;;;5058655;28;20461;-79
2023/07/20 07:17:54;;;;;;;2.20;0.63;;;22.60;99.90;;;;;;5060059;28;20442;-79
2023/07/20 07:20:21;;;;;;;0.50;0.40;;;22.30;99.90;;;;;;5058183;28;20539;-79
2023/07/20 07:22:48;;;;;;;0.50;0.40;;;22.40;99.90;;;;;;5059581;28;20483;-80
2023/07/20 07:25:16;;;;;;;0.50;0.30;;;22.60;99.90;;;;;;5056734;28;20474;-79
2023/07/20 07:27:43;;;;;;;0.90;0.90;;;23.30;99.90;;;;;;5059612;28;20998;-79
2023/07/20 07:30:12;;;;;;;2.40;0.90;;;24.00;99.90;;;;;;5056888;28;20440;-79
2023/07/20 07:32:39;;;;;;;0.50;0.30;;;24.50;99.90;;;;;;5060018;28;20450;-80
2023/07/20 07:35:06;;;;;;;0.50;0.30;;;25.30;99.90;;;;;;5058953;28;20545;-77
2023/07/20 07:37:33;;;;;;;0.50;0.30;;;25.90;99.90;;;;;;5056721;28;20444;-79
2023/07/20 07:40:00;;;;;;;0.50;0.30;;;25.80;99.90;;;;;;5059527;28;20546;-80
2023/07/20 07:42:27;;;;;;;0.50;0.30;;;26.30;99.90;;;;;;5059014;28;20520;-82
2023/07/20 07:44:54;;;;;;;0.50;0.30;;;26.70;99.90;;;;;;5060351;28;20573;-80
2023/07/20 07:47:22;;;;;;;0.50;0.30;;;26.50;99.90;;;;;;5062226;28;20447;-82
2023/07/20 07:49:49;;;;;;;0.50;0.30;;;26.20;99.90;;;;;;5074420;28;20448;-83
2023/07/20 07:52:16;;;;;;;0.50;0.40;;;25.80;99.90;;;;;;5070155;28;20440;-83
2023/07/20 07:54:43;;;;;;;0.50;0.30;;;25.20;99.90;;;;;;5068285;28;20824;-81
2023/07/20 07:57:09;;;;;;;0.50;0.40;;;24.40;99.90;;;;;;5067965;28;20532;-83
2023/07/20 07:59:37;;;;;;;0.50;0.30;;;23.70;99.90;;;;;;5069259;28;20467;-82
2023/07/20 08:02:06;;;;;;;0.50;0.30;;;23.80;99.90;;;;;;5068027;28;20445;-85
2023/07/20 08:04:35;;;;;;;0.50;0.30;;;24.60;99.90;;;;;;5067529;28;20483;-84
2023/07/20 08:07:03;;;;;;;0.50;0.30;;;25.40;99.90;;;;;;5068138;28;20443;-83
2023/07/20 08:09:30;;;;;;;0.50;0.40;;;26.20;99.90;;;;;;5067535;28;20447;-84
2023/07/20 08:11:57;;;;;;;0.50;0.30;;;26.40;99.90;;;;;;5066981;28;20504;-84
2023/07/20 08:14:24;;;;;;;0.50;0.30;;;26.80;99.90;;;;;;5067453;28;20468;-83
2023/07/20 08:16:51;;;;;;;0.47;0.30;;;27.50;99.90;;;;;;5067980;28;20463;-86
2023/07/20 08:19:18;;;;;;;0.50;0.33;;;28.00;99.90;;;;;;5067808;28;20454;-84
2023/07/20 08:21:46;;;;;;;0.50;0.30;;;28.30;99.90;;;;;;5070765;28;20501;-83
2023/07/20 08:24:13;;;;;;;0.50;0.40;;;28.40;99.90;;;;;;5065797;28;20476;-84
2023/07/20 08:26:40;;;;;;;0.50;0.30;;;29.20;99.80;;;;;;5071455;28;20484;-84
2023/07/20 08:29:07;;;;;;;0.50;0.30;;;29.30;93.80;;;;;;5072112;28;20468;-85
2023/07/20 08:31:34;;;;;;;0.50;0.30;;;29.60;92.10;;;;;;5070877;28;20463;-81
2023/07/20 08:34:01;;;;;;;0.50;0.30;;;30.10;93.10;;;;;;5070462;28;20459;-82
2023/07/20 08:36:28;;;;;;;0.50;0.30;;;30.10;85.50;;;;;;5070527;28;20431;-84
2023/07/20 08:38:56;;;;;;;0.50;0.30;;;29.80;86.00;;;;;;5070600;28;20431;-84
2023/07/20 08:41:23;;;;;;;0.50;0.30;;;29.60;87.90;;;;;;5071448;28;20463;-84
2023/07/20 08:43:51;;;;;;;0.50;0.30;;;29.80;89.60;;;;;;5070377;28;20485;-84
2023/07/20 08:46:18;;;;;;;0.50;0.30;;;30.10;83.60;;;;;;5070428;28;20442;-84
2023/07/20 08:48:45;;;;;;;0.50;0.30;;;30.10;80.60;;;;;;5070837;28;20440;-84
2023/07/20 08:51:13;;;;;;;2.20;0.60;;;30.50;86.00;;;;;;5071627;28;20459;-85
2023/07/20 08:53:40;;;;;;;0.50;0.30;;;30.70;82.70;;;;;;5070152;28;20471;-85
2023/07/20 08:56:11;;;;;;;0.50;0.30;;;29.80;79.10;;;;;;5071598;28;20451;-84
2023/07/20 08:58:40;;;;;;;0.50;0.30;;;29.10;84.10;;;;;;5070900;28;20459;-80
2023/07/20 09:01:07;;;;;;;0.50;0.30;;;29.20;89.90;;;;;;5071144;28;20516;-85
2023/07/20 09:03:34;;;;;;;0.50;0.30;;;28.70;85.60;;;;;;5070290;28;20480;-83
2023/07/20 09:06:01;;;;;;;0.50;0.30;;;27.60;85.00;;;;;;5069704;28;20466;-84
2023/07/20 09:08:28;;;;;;;0.50;0.30;;;26.80;87.30;;;;;;5070151;28;20451;-83
2023/07/20 09:10:54;;;;;;;0.50;0.30;;;27.20;87.60;;;;;;5070318;28;20515;-81
2023/07/20 09:13:22;;;;;;;0.50;0.30;;;28.00;90.50;;;;;;5069931;28;20443;-84
2023/07/20 09:15:54;;;;;;;0.50;0.30;;;29.00;86.80;;;;;;5068693;28;20467;-84
2023/07/20 09:18:25;;;;;;;0.50;0.30;;;29.60;82.50;;;;;;5067979;28;20512;-85
2023/07/20 09:20:52;;;;;;;0.50;0.30;;;30.30;79.00;;;;;;5068188;28;20860;-84
2023/07/20 09:23:19;;;;;;;0.50;0.30;;;30.60;75.00;;;;;;5068739;28;20432;-82
2023/07/20 09:25:50;;;;;;;0.50;0.30;;;31.00;82.70;;;;;;5069324;28;20461;-84
2023/07/20 09:28:18;;;;;;;0.43;0.30;;;31.70;83.60;;;;;;5068753;28;20457;-79
2023/07/20 09:30:46;;;;;;;0.50;0.30;;;31.50;73.00;;;;;;5067971;28;20437;-84
2023/07/20 09:33:20;;;;;;;0.50;0.30;;;30.70;76.40;;;;;;5068534;28;20501;-85
2023/07/20 09:35:46;;;;;;;0.50;0.30;;;29.80;77.00;;;;;;5069130;28;20482;-83
2023/07/20 09:38:16;;;;;;;0.50;0.30;;;28.40;80.20;;;;;;5069886;28;20511;-83
2023/07/20 09:40:43;;;;;;;0.50;0.30;;;27.30;81.50;;;;;;5069253;28;20458;-83
2023/07/20 09:43:11;;;;;;;0.50;0.30;;;26.20;86.30;;;;;;5068483;28;20519;-81
2023/07/20 09:45:41;;;;;;;0.50;0.30;;;25.80;90.20;;;;;;5068361;28;20474;-83
2023/07/20 09:48:11;;;;;;;0.50;0.40;;;26.80;94.60;;;;;;5068046;28;20459;-84
2023/07/20 09:50:41;;;;;;;0.50;0.30;;;27.60;86.50;;;;;;5068944;28;20436;-83
2023/07/20 09:53:10;;;;;;;0.50;0.30;;;28.00;90.00;;;;;;5071040;28;20428;-85
2023/07/20 09:55:37;;;;;;;0.50;0.30;;;28.50;86.10;;;;;;5077804;28;20526;-82
2023/07/20 09:58:06;;;;;;;0.60;0.40;;;28.80;85.40;;;;;;5071672;28;20844;-84
2023/07/20 10:00:35;;;;;;;0.50;0.30;;;29.10;81.70;;;;;;5068393;28;20482;-84
2023/07/20 10:03:04;;;;;;;0.50;0.30;;;29.70;80.60;;;;;;5068795;28;20510;-84
2023/07/20 10:05:35;;;;;;;0.50;0.30;;;30.50;83.90;;;;;;5068092;28;20797;-81
2023/07/20 10:08:04;;;;;;;0.50;0.30;;;31.30;81.70;;;;;;5067571;28;20439;-80
2023/07/20 10:10:33;;;;;;;0.50;0.30;;;31.90;72.20;;;;;;5066565;28;20447;-80
2023/07/20 10:13:02;;;;;;;0.50;0.30;;;32.40;73.40;;;;;;5062928;28;20467;-81
2023/07/20 10:15:34;;;;;;;0.50;0.30;;;33.00;69.50;;;;;;5063109;28;20453;-81
2023/07/20 10:18:06;;;;;;;0.40;0.40;;;33.30;67.80;;;;;;5059280;28;20954;-80
2023/07/20 10:20:37;;;;;;;0.40;0.30;;;33.60;69.00;;;;;;5060431;28;20949;-80
2023/07/20 10:23:05;;;;;;;0.40;0.30;;;33.80;67.10;;;;;;5058089;28;20442;-79
2023/07/20 10:25:37;;;;;;;0.50;0.30;;;33.30;65.00;;;;;;5057975;28;20796;-77
2023/07/20 10:28:05;;;;;;;0.50;0.30;;;32.10;61.10;;;;;;5058123;28;20457;-82
2023/07/20 10:30:34;;;;;;;0.50;0.30;;;31.40;65.20;;;;;;5060388;28;20432;-79
2023/07/20 10:33:02;;;;;;;0.50;0.30;;;31.30;58.60;;;;;;5059836;28;20535;-81
2023/07/20 10:35:30;;;;;;;0.50;0.30;;;31.40;63.30;;;;;;5075191;28;20454;-83
2023/07/20 10:38:01;;;;;;;0.50;0.30;;;31.90;69.20;;;;;;5061942;28;20528;-79
2023/07/20 10:40:31;;;;;;;0.50;0.30;;;32.70;63.90;;;;;;5052157;28;20611;-79
2023/07/20 10:43:00;;;;;;;0.50;0.30;;;33.30;60.70;;;;;;5057719;28;20440;-80
2023/07/20 10:45:43;;;;;;;0.40;0.30;;;32.90;59.60;;;;;;5055306;28;20483;-79
2023/07/20 10:48:21;;;;;;;0.50;0.30;;;31.70;63.40;;;;;;5056754;28;20450;-81
2023/07/20 10:51:11;;;;;;;0.50;0.30;;;30.40;67.30;;;;;;5057268;28;20483;-81
2023/07/20 10:53:40;;;;;;;0.50;0.30;;;29.70;67.80;;;;;;5056239;28;20806;-82
2023/07/20 10:56:08;;;;;;;0.50;0.43;;;30.20;69.60;;;;;;5056245;28;20759;-82
2023/07/20 10:58:35;;;;;;;0.50;0.30;;;30.50;67.90;;;;;;5055820;28;20437;-82
2023/07/20 11:01:03;;;;;;;0.50;0.30;;;30.80;61.60;;;;;;5063028;28;20436;-80
2023/07/20 11:03:32;;;;;;;0.50;0.30;;;31.20;66.50;;;;;;5056559;28;20467;-81
2023/07/20 11:05:59;;;;;;;0.50;0.30;;;31.50;61.50;;;;;;5041936;28;20470;-79
2023/07/20 11:08:42;;;;;;;0.50;0.30;;;32.10;65.40;;;;;;5048534;28;20443;-78
2023/07/20 11:11:25;;;;;;;0.50;0.30;;;32.70;63.50;;;;;;5058274;28;20853;-82
2023/07/20 11:13:57;;;;;;;0.40;0.30;;;33.00;63.00;;;;;;5057194;28;20860;-80
2023/07/20 11:16:41;;;;;;;0.50;0.30;;;32.40;58.00;;;;;;5057411;28;20433;-81
2023/07/20 11:19:16;;;;;;;0.50;0.30;;;31.50;66.50;;;;;;5064735;28;20448;-82
2023/07/20 11:21:45;;;;;;;0.50;0.30;;;31.40;59.80;;;;;;5064358;28;20442;-77
2023/07/20 11:24:14;;;;;;;0.50;0.40;;;31.10;60.40;;;;;;5060775;28;20571;-80
2023/07/20 11:26:42;;;;;;;1.43;1.33;;;30.00;61.20;;;;;;5056794;28;20835;-80
2023/07/20 11:29:09;;;;;;;0.50;0.30;;;29.40;64.10;;;;;;5057154;28;20790;-80
2023/07/20 11:31:39;;;;;;;0.50;0.30;;;29.10;63.40;;;;;;5055236;28;20451;-79
2023/07/20 11:34:06;;;;;;;0.50;0.30;;;28.40;65.10;;;;;;5060682;28;20478;-81
2023/07/20 11:36:34;;;;;;;1.90;1.80;;;27.80;72.40;;;;;;5058315;28;20882;-80
2023/07/20 11:39:04;;;;;;;0.50;0.30;;;27.60;73.70;;;;;;5056618;28;20939;-80
2023/07/20 11:41:33;;;;;;;0.50;0.30;;;27.10;70.20;;;;;;5057638;28;20433;-80
2023/07/20 11:44:00;;;;;;;0.50;0.30;;;27.00;70.20;;;;;;5057653;28;20463;-80
2023/07/20 11:46:28;;;;;;;0.50;0.30;;;27.60;72.00;;;;;;5057165;28;20471;-80
2023/07/20 11:49:00;;;;;;;0.50;0.30;;;27.90;72.20;;;;;;5058663;28;20444;-80
2023/07/20 11:51:28;;;;;;;0.50;0.30;;;28.90;69.60;;;;;;5061552;28;20453;-80
2023/07/20 11:53:55;;;;;;;0.50;0.30;;;29.60;63.20;;;;;;5057545;28;20456;-81
2023/07/20 11:56:23;;;;;;;0.50;0.30;;;30.50;65.70;;;;;;5055906;28;20440;-80
2023/07/20 11:58:55;;;;;;;0.50;0.30;;;31.20;64.50;;;;;;5062899;28;20452;-80
2023/07/20 12:01:22;;;;;;;0.50;0.30;;;31.20;63.10;;;;;;5070765;28;20468;-80
2023/07/20 12:03:50;;;;;;;0.50;0.30;;;31.50;63.50;;;;;;5066847;28;20539;-82
2023/07/20 12:06:17;;;;;;;0.50;0.30;;;31.90;61.60;;;;;;5066918;28;20470;-82
2023/07/20 12:08:45;;;;;;;0.50;0.30;;;32.00;58.60;;;;;;5068092;28;20765;-82
2023/07/20 12:11:12;;;;;;;0.50;0.30;;;31.60;54.70;;;;;;5064764;28;20441;-80
2023/07/20 12:13:40;;;;;;;0.47;0.30;;;31.00;57.00;;;;;;5065371;28;20453;-82
2023/07/20 12:16:15;;;;;;;0.50;0.30;;;31.30;58.10;;;;;;5057605;28;20428;-84
2023/07/20 12:18:44;;;;;;;0.50;0.40;;;31.20;63.60;;;;;;5053150;28;20436;-79
2023/07/20 12:21:11;;;;;;;1.17;1.07;;;30.60;59.10;;;;;;5056266;28;20451;-80
2023/07/20 12:23:40;;;;;;;0.47;0.30;;;30.40;63.20;;;;;;5055895;28;20441;-82
2023/07/20 12:26:11;;;;;;;0.50;0.30;;;31.00;61.10;;;;;;5056879;28;20567;-83
2023/07/20 12:35:55;;;;;;;0.47;0.30;;;31.20;63.30;;;;;;5074135;22;20502;-82
2023/07/20 12:38:23;;;;;;;0.40;0.30;;;32.00;61.10;;;;;;5084901;28;20433;-79
2023/07/20 12:40:49;;;;;;;0.50;0.30;;;32.20;58.10;;;;;;5085935;28;20454;-82
2023/07/20 12:43:16;;;;;;;0.50;0.40;;;32.00;57.50;;;;;;5086618;28;20447;-80
2023/07/20 12:45:43;;;;;;;0.50;0.30;;;31.10;58.20;;;;;;5087774;28;20474;-79
2023/07/20 12:48:10;;;;;;;0.50;0.30;;;29.90;58.30;;;;;;5088863;28;20447;-78
2023/07/20 12:50:37;;;;;;;0.50;0.30;;;28.90;60.40;;;;;;5090901;28;20461;-81
2023/07/20 12:53:05;;;;;;;0.50;0.30;;;28.10;65.60;;;;;;5091441;28;20819;-78
2023/07/20 12:55:32;;;;;;;0.50;0.30;;;27.30;64.80;;;;;;5087957;28;20458;-81
2023/07/20 12:57:59;;;;;;;0.50;0.30;;;26.50;62.20;;;;;;5086631;28;20536;-78
2023/07/20 13:00:26;;;;;;;0.50;0.30;;;26.10;65.60;;;;;;5086815;28;20448;-78